Orlando, Florida
Current Conditions -  °F | °C
As of 10:53 AM on Sunday 21 Dec 2014 (Local Time) from KORL Reporting Station
Clear Clear  
Wind Chill: 73°   Ceiling: Unl
Heat Index: 73°   Visibility: 10mi
Dew Point: 64°   Wind: 8mph
Humidity: 73%   Direction: 210°SSW
Pressure: 30.1"   Gusts: NA
Location:  28.54°N, 81.38°W
Report Text: KORL 211553Z 21007KT 10SM CLR 23/18 A3010 RMK AO2 SLP196 T02280178
Loading
Personal Weather Stations






























Interactive Weather Map New forecast layout! Learn more

10-Day Weather Forecast

Advertisements
Track Severe Weather on mobile